createdAt,value
2022-09-24T00:01:25.168Z,3.40
2022-09-24T00:11:29.418Z,4.05
2022-09-24T00:21:34.902Z,4.65
2022-09-24T00:31:37.455Z,4.15
2022-09-24T00:41:41.853Z,2.90
2022-09-24T00:51:47.526Z,3.22
2022-09-24T01:01:52.050Z,2.83
2022-09-24T01:22:09.088Z,2.95
2022-09-24T01:32:32.434Z,2.55
2022-09-24T01:42:37.894Z,2.67
2022-09-24T01:53:24.464Z,2.37
2022-09-24T02:03:30.895Z,2.40
2022-09-24T02:13:43.516Z,2.60
2022-09-24T02:23:51.492Z,2.30
2022-09-24T02:34:13.043Z,2.30
2022-09-24T02:44:16.924Z,2.20
2022-09-24T02:54:19.325Z,2.17
2022-09-24T03:04:22.103Z,2.08
2022-09-24T03:14:24.639Z,1.67
2022-09-24T03:24:26.911Z,1.58
2022-09-24T03:34:29.323Z,1.27
2022-09-24T03:44:31.766Z,1.83
2022-09-24T03:54:34.112Z,1.33
2022-09-24T04:04:36.468Z,1.25
2022-09-24T04:14:39.000Z,1.20
2022-09-24T04:24:41.338Z,1.42
2022-09-24T04:34:43.652Z,1.15
2022-09-24T04:44:49.370Z,1.30
2022-09-24T04:54:53.166Z,1.48
2022-09-24T05:04:55.524Z,1.45
2022-09-24T05:14:57.935Z,1.40
2022-09-24T05:25:00.264Z,1.33
2022-09-24T05:35:02.845Z,1.60
2022-09-24T05:45:06.603Z,1.20
2022-09-24T05:55:10.681Z,1.30
2022-09-24T06:05:13.695Z,1.37
2022-09-24T06:15:16.673Z,1.20
2022-09-24T06:25:19.283Z,1.20
2022-09-24T06:35:22.432Z,1.42
2022-09-24T06:45:27.117Z,1.00
2022-09-24T06:55:29.497Z,1.50
2022-09-24T07:05:33.684Z,1.12
2022-09-24T07:15:36.264Z,1.33
2022-09-24T07:25:39.431Z,1.40
2022-09-24T07:35:41.931Z,1.45
2022-09-24T07:45:44.374Z,2.00
2022-09-24T07:55:46.745Z,2.03
2022-09-24T08:05:49.788Z,1.95
2022-09-24T08:16:02.238Z,1.55
2022-09-24T08:26:05.306Z,1.98
2022-09-24T08:36:10.313Z,2.33
2022-09-24T08:46:41.435Z,2.60
2022-09-24T08:56:46.534Z,1.75
2022-09-24T09:07:21.789Z,2.03
2022-09-24T09:17:35.378Z,2.50
2022-09-24T09:27:37.977Z,2.07
2022-09-24T09:37:47.660Z,1.65
2022-09-24T09:48:02.174Z,1.33
2022-09-24T09:58:18.890Z,1.95
2022-09-24T10:08:22.750Z,1.55
2022-09-24T10:18:28.816Z,2.60
2022-09-24T10:28:52.017Z,2.60
2022-09-24T10:39:14.714Z,1.60
2022-09-24T10:49:45.507Z,1.73
2022-09-24T11:00:04.342Z,1.40
2022-09-24T11:10:21.500Z,1.42
2022-09-24T11:20:30.290Z,1.48
2022-09-24T11:30:57.622Z,1.20
2022-09-24T11:41:28.319Z,1.50
2022-09-24T11:51:37.038Z,1.45
2022-09-24T12:01:47.753Z,1.40
2022-09-24T12:12:08.292Z,1.25
2022-09-24T12:22:12.334Z,1.60
2022-09-24T12:32:38.777Z,1.37
2022-09-24T12:42:50.188Z,1.40
2022-09-24T12:52:53.105Z,1.25
2022-09-24T13:02:56.952Z,1.15
2022-09-24T13:23:17.823Z,1.60
2022-09-24T13:33:32.345Z,1.42
2022-09-24T13:43:48.780Z,1.87
2022-09-24T13:54:26.457Z,1.37
2022-09-24T14:04:29.154Z,1.58
2022-09-24T14:14:35.380Z,1.48
2022-09-24T14:24:45.737Z,1.50
2022-09-24T14:34:53.659Z,1.70
2022-09-24T14:44:56.916Z,1.42
2022-09-24T14:55:20.126Z,2.30
2022-09-24T15:05:28.623Z,2.65
2022-09-24T15:15:32.748Z,1.40
2022-09-24T15:35:38.467Z,2.00
2022-09-24T15:45:41.364Z,2.35
2022-09-24T15:55:46.626Z,2.65
2022-09-24T16:05:49.343Z,2.97
2022-09-24T16:15:51.903Z,2.00
2022-09-24T16:26:00.984Z,1.50
2022-09-24T16:36:08.410Z,1.23
2022-09-24T16:46:11.498Z,1.87
2022-09-24T16:56:17.430Z,1.58
2022-09-24T17:06:26.433Z,1.70
2022-09-24T17:16:30.721Z,1.50
2022-09-24T17:26:33.317Z,1.60
2022-09-24T17:36:37.478Z,1.70
2022-09-24T17:46:40.377Z,1.50
2022-09-24T17:56:43.335Z,1.75
2022-09-24T18:06:47.391Z,1.70
2022-09-24T18:16:50.820Z,1.60
2022-09-24T18:26:53.398Z,1.25
2022-09-24T18:36:55.783Z,1.90
2022-09-24T18:46:58.279Z,1.50
2022-09-24T18:57:00.857Z,2.70
2022-09-24T19:07:03.766Z,2.50
2022-09-24T19:17:07.421Z,2.20
2022-09-24T19:27:09.862Z,1.47
2022-09-24T19:37:12.484Z,1.87
2022-09-24T19:47:15.130Z,2.00
2022-09-24T19:57:19.676Z,2.13
2022-09-24T20:17:24.892Z,2.03
2022-09-24T20:27:46.659Z,2.63
2022-09-24T20:37:49.596Z,3.30
2022-09-24T20:47:53.169Z,3.30
2022-09-24T20:57:55.881Z,3.40
2022-09-24T21:07:58.289Z,3.07
2022-09-24T21:18:22.175Z,3.27
2022-09-24T21:28:26.309Z,3.30
2022-09-24T21:38:29.199Z,4.07
2022-09-24T21:48:33.268Z,3.10
2022-09-24T21:58:36.140Z,3.73
2022-09-24T22:08:38.991Z,4.67
2022-09-24T22:18:41.554Z,4.27
2022-09-24T22:28:44.995Z,5.23
2022-09-24T22:38:49.825Z,4.30
2022-09-24T22:48:52.376Z,4.07
2022-09-24T22:58:58.590Z,3.83
2022-09-24T23:09:01.944Z,3.67
2022-09-24T23:19:07.027Z,3.97
2022-09-24T23:29:10.425Z,4.35
2022-09-24T23:39:12.863Z,5.40
2022-09-24T23:49:15.158Z,6.00
2022-09-24T23:59:17.713Z,5.93
